sensor_id;sensor_type;location;lat;lon;timestamp;temperature;humidity
18998;DHT22;9632;51.018;4.284;2022-07-04T00:02:18;17.60;99.90
18998;DHT22;9632;51.018;4.284;2022-07-04T00:04:44;17.50;99.90
18998;DHT22;9632;51.018;4.284;2022-07-04T00:07:10;17.50;99.90
18998;DHT22;9632;51.018;4.284;2022-07-04T00:09:35;17.50;99.90
18998;DHT22;9632;51.018;4.284;2022-07-04T00:12:01;17.50;99.90
18998;DHT22;9632;51.018;4.284;2022-07-04T00:14:27;17.50;99.90
18998;DHT22;9632;51.018;4.284;2022-07-04T00:16:53;17.50;99.90
18998;DHT22;9632;51.018;4.284;2022-07-04T00:19:18;17.50;99.90
18998;DHT22;9632;51.018;4.284;2022-07-04T00:21:44;17.50;99.90
18998;DHT22;9632;51.018;4.284;2022-07-04T00:24:11;17.40;99.90
18998;DHT22;9632;51.018;4.284;2022-07-04T00:26:36;17.40;99.90
18998;DHT22;9632;51.018;4.284;2022-07-04T00:29:02;17.40;99.90
18998;DHT22;9632;51.018;4.284;2022-07-04T00:31:28;17.40;99.90
18998;DHT22;9632;51.018;4.284;2022-07-04T00:33:53;17.30;99.90
18998;DHT22;9632;51.018;4.284;2022-07-04T00:36:19;17.30;99.90
18998;DHT22;9632;51.018;4.284;2022-07-04T00:38:45;17.20;99.90
18998;DHT22;9632;51.018;4.284;2022-07-04T00:41:10;17.10;99.90
18998;DHT22;9632;51.018;4.284;2022-07-04T00:43:36;17.10;99.90
18998;DHT22;9632;51.018;4.284;2022-07-04T00:46:05;17.00;99.90
18998;DHT22;9632;51.018;4.284;2022-07-04T00:48:33;17.00;99.90
18998;DHT22;9632;51.018;4.284;2022-07-04T00:50:59;17.00;99.90
18998;DHT22;9632;51.018;4.284;2022-07-04T00:53:24;17.00;99.90
18998;DHT22;9632;51.018;4.284;2022-07-04T00:55:51;16.90;99.90
18998;DHT22;9632;51.018;4.284;2022-07-04T00:58:20;16.90;99.90
18998;DHT22;9632;51.018;4.284;2022-07-04T01:00:46;16.90;99.90
18998;DHT22;9632;51.018;4.284;2022-07-04T01:03:12;16.90;99.90
18998;DHT22;9632;51.018;4.284;2022-07-04T01:05:38;16.80;99.90
18998;DHT22;9632;51.018;4.284;2022-07-04T01:08:06;16.70;99.90
18998;DHT22;9632;51.018;4.284;2022-07-04T01:10:31;16.70;99.90
18998;DHT22;9632;51.018;4.284;2022-07-04T01:12:57;16.70;99.90
18998;DHT22;9632;51.018;4.284;2022-07-04T01:15:23;16.70;99.90
18998;DHT22;9632;51.018;4.284;2022-07-04T01:17:49;16.60;99.90
18998;DHT22;9632;51.018;4.284;2022-07-04T01:20:15;16.60;99.90
18998;DHT22;9632;51.018;4.284;2022-07-04T01:22:41;16.60;99.90
18998;DHT22;9632;51.018;4.284;2022-07-04T01:25:10;16.50;99.90
18998;DHT22;9632;51.018;4.284;2022-07-04T01:27:36;16.50;99.90
18998;DHT22;9632;51.018;4.284;2022-07-04T01:30:02;16.50;99.90
18998;DHT22;9632;51.018;4.284;2022-07-04T01:32:27;16.40;99.90
18998;DHT22;9632;51.018;4.284;2022-07-04T01:34:53;16.40;99.90
18998;DHT22;9632;51.018;4.284;2022-07-04T01:37:19;16.40;99.90
18998;DHT22;9632;51.018;4.284;2022-07-04T01:39:44;16.30;99.90
18998;DHT22;9632;51.018;4.284;2022-07-04T01:42:10;16.30;99.90
18998;DHT22;9632;51.018;4.284;2022-07-04T01:44:36;16.20;99.90
18998;DHT22;9632;51.018;4.284;2022-07-04T01:47:02;16.20;99.90
18998;DHT22;9632;51.018;4.284;2022-07-04T01:49:28;16.30;99.90
18998;DHT22;9632;51.018;4.284;2022-07-04T01:51:53;16.30;99.90
18998;DHT22;9632;51.018;4.284;2022-07-04T01:54:20;16.20;99.90
18998;DHT22;9632;51.018;4.284;2022-07-04T01:56:46;16.20;99.90
18998;DHT22;9632;51.018;4.284;2022-07-04T01:59:12;16.20;99.90
18998;DHT22;9632;51.018;4.284;2022-07-04T02:01:38;16.20;99.90
18998;DHT22;9632;51.018;4.284;2022-07-04T02:04:05;16.20;99.90
18998;DHT22;9632;51.018;4.284;2022-07-04T02:06:31;16.20;99.90
18998;DHT22;9632;51.018;4.284;2022-07-04T02:08:57;16.10;99.90
18998;DHT22;9632;51.018;4.284;2022-07-04T02:11:42;16.10;99.90
18998;DHT22;9632;51.018;4.284;2022-07-04T02:14:26;16.00;99.90
18998;DHT22;9632;51.018;4.284;2022-07-04T02:16:52;16.00;99.90
18998;DHT22;9632;51.018;4.284;2022-07-04T02:19:18;16.00;99.90
18998;DHT22;9632;51.018;4.284;2022-07-04T02:21:44;15.90;99.90
18998;DHT22;9632;51.018;4.284;2022-07-04T02:24:10;15.90;99.90
18998;DHT22;9632;51.018;4.284;2022-07-04T02:26:36;15.80;99.90
18998;DHT22;9632;51.018;4.284;2022-07-04T02:29:01;15.80;99.90
18998;DHT22;9632;51.018;4.284;2022-07-04T02:31:27;15.80;99.90
18998;DHT22;9632;51.018;4.284;2022-07-04T02:33:53;15.80;99.90
18998;DHT22;9632;51.018;4.284;2022-07-04T02:36:18;15.80;99.90
18998;DHT22;9632;51.018;4.284;2022-07-04T02:38:44;15.80;99.90
18998;DHT22;9632;51.018;4.284;2022-07-04T02:41:09;15.80;99.90
18998;DHT22;9632;51.018;4.284;2022-07-04T02:43:35;15.80;99.90
18998;DHT22;9632;51.018;4.284;2022-07-04T02:46:01;15.90;99.90
18998;DHT22;9632;51.018;4.284;2022-07-04T02:48:27;15.90;99.90
18998;DHT22;9632;51.018;4.284;2022-07-04T02:50:52;15.90;99.90
18998;DHT22;9632;51.018;4.284;2022-07-04T02:53:18;15.90;99.90
18998;DHT22;9632;51.018;4.284;2022-07-04T02:55:43;15.80;99.90
18998;DHT22;9632;51.018;4.284;2022-07-04T02:58:09;15.80;99.90
18998;DHT22;9632;51.018;4.284;2022-07-04T03:00:35;15.80;99.90
18998;DHT22;9632;51.018;4.284;2022-07-04T03:03:00;15.70;99.90
18998;DHT22;9632;51.018;4.284;2022-07-04T03:05:26;15.70;99.90
18998;DHT22;9632;51.018;4.284;2022-07-04T03:07:54;15.70;99.90
18998;DHT22;9632;51.018;4.284;2022-07-04T03:10:19;15.70;99.90
18998;DHT22;9632;51.018;4.284;2022-07-04T03:12:45;15.70;99.90
18998;DHT22;9632;51.018;4.284;2022-07-04T03:15:11;15.70;99.90
18998;DHT22;9632;51.018;4.284;2022-07-04T03:17:36;15.70;99.90
18998;DHT22;9632;51.018;4.284;2022-07-04T03:20:02;15.70;99.90
18998;DHT22;9632;51.018;4.284;2022-07-04T03:22:28;15.70;99.90
18998;DHT22;9632;51.018;4.284;2022-07-04T03:24:53;15.60;99.90
18998;DHT22;9632;51.018;4.284;2022-07-04T03:27:19;15.60;99.90
18998;DHT22;9632;51.018;4.284;2022-07-04T03:29:45;15.60;99.90
18998;DHT22;9632;51.018;4.284;2022-07-04T03:32:11;15.70;99.90
18998;DHT22;9632;51.018;4.284;2022-07-04T03:34:36;15.60;99.90
18998;DHT22;9632;51.018;4.284;2022-07-04T03:37:02;15.70;99.90
18998;DHT22;9632;51.018;4.284;2022-07-04T03:39:28;15.70;99.90
18998;DHT22;9632;51.018;4.284;2022-07-04T03:41:54;15.70;99.90
18998;DHT22;9632;51.018;4.284;2022-07-04T03:44:19;15.70;99.90
18998;DHT22;9632;51.018;4.284;2022-07-04T03:46:45;15.60;99.90
18998;DHT22;9632;51.018;4.284;2022-07-04T03:49:10;15.60;99.90
18998;DHT22;9632;51.018;4.284;2022-07-04T03:51:36;15.60;99.90
18998;DHT22;9632;51.018;4.284;2022-07-04T03:54:02;15.60;99.90
18998;DHT22;9632;51.018;4.284;2022-07-04T03:56:27;15.60;99.90
18998;DHT22;9632;51.018;4.284;2022-07-04T03:58:53;15.70;99.90
18998;DHT22;9632;51.018;4.284;2022-07-04T04:01:19;15.70;99.90
18998;DHT22;9632;51.018;4.284;2022-07-04T04:03:45;15.90;99.90
18998;DHT22;9632;51.018;4.284;2022-07-04T04:06:43;16.00;99.90
18998;DHT22;9632;51.018;4.284;2022-07-04T04:09:09;16.20;99.90
18998;DHT22;9632;51.018;4.284;2022-07-04T04:11:42;16.40;99.90
18998;DHT22;9632;51.018;4.284;2022-07-04T04:14:07;16.60;99.90
18998;DHT22;9632;51.018;4.284;2022-07-04T04:16:33;16.80;99.90
18998;DHT22;9632;51.018;4.284;2022-07-04T04:18:59;17.00;99.90
18998;DHT22;9632;51.018;4.284;2022-07-04T04:21:25;17.20;99.90
18998;DHT22;9632;51.018;4.284;2022-07-04T04:23:50;17.40;99.90
18998;DHT22;9632;51.018;4.284;2022-07-04T04:26:16;17.60;99.90
18998;DHT22;9632;51.018;4.284;2022-07-04T04:28:42;17.80;99.90
18998;DHT22;9632;51.018;4.284;2022-07-04T04:31:08;18.00;99.90
18998;DHT22;9632;51.018;4.284;2022-07-04T04:33:35;18.30;99.90
18998;DHT22;9632;51.018;4.284;2022-07-04T04:36:01;18.50;99.90
18998;DHT22;9632;51.018;4.284;2022-07-04T04:38:26;18.70;99.90
18998;DHT22;9632;51.018;4.284;2022-07-04T04:40:52;19.00;99.90
18998;DHT22;9632;51.018;4.284;2022-07-04T04:43:18;19.20;99.90
18998;DHT22;9632;51.018;4.284;2022-07-04T04:45:43;19.50;99.90
18998;DHT22;9632;51.018;4.284;2022-07-04T04:48:09;19.60;99.90
18998;DHT22;9632;51.018;4.284;2022-07-04T04:50:35;19.90;99.90
18998;DHT22;9632;51.018;4.284;2022-07-04T04:53:01;20.10;99.90
18998;DHT22;9632;51.018;4.284;2022-07-04T04:55:27;20.30;99.90
18998;DHT22;9632;51.018;4.284;2022-07-04T04:57:53;20.50;99.90
18998;DHT22;9632;51.018;4.284;2022-07-04T05:00:18;20.70;99.90
18998;DHT22;9632;51.018;4.284;2022-07-04T05:02:44;20.90;99.90
18998;DHT22;9632;51.018;4.284;2022-07-04T05:05:10;21.10;99.90
18998;DHT22;9632;51.018;4.284;2022-07-04T05:07:35;21.20;99.90
18998;DHT22;9632;51.018;4.284;2022-07-04T05:10:02;21.40;99.90
18998;DHT22;9632;51.018;4.284;2022-07-04T05:12:28;21.50;99.90
18998;DHT22;9632;51.018;4.284;2022-07-04T05:14:54;21.60;99.90
18998;DHT22;9632;51.018;4.284;2022-07-04T05:17:20;21.60;99.90
18998;DHT22;9632;51.018;4.284;2022-07-04T05:19:46;21.60;99.90
18998;DHT22;9632;51.018;4.284;2022-07-04T05:22:12;21.60;99.90
18998;DHT22;9632;51.018;4.284;2022-07-04T05:24:38;21.60;99.90
18998;DHT22;9632;51.018;4.284;2022-07-04T05:27:05;21.40;99.90
18998;DHT22;9632;51.018;4.284;2022-07-04T05:29:31;21.50;99.90
18998;DHT22;9632;51.018;4.284;2022-07-04T05:31:57;21.60;99.90
18998;DHT22;9632;51.018;4.284;2022-07-04T05:34:22;21.70;99.90
18998;DHT22;9632;51.018;4.284;2022-07-04T05:36:48;21.60;99.90
18998;DHT22;9632;51.018;4.284;2022-07-04T05:39:14;21.70;99.90
18998;DHT22;9632;51.018;4.284;2022-07-04T05:41:39;21.70;99.90
18998;DHT22;9632;51.018;4.284;2022-07-04T05:44:05;21.90;99.90
18998;DHT22;9632;51.018;4.284;2022-07-04T05:46:31;22.00;99.90
18998;DHT22;9632;51.018;4.284;2022-07-04T05:48:57;22.30;99.90
18998;DHT22;9632;51.018;4.284;2022-07-04T05:51:23;22.50;99.90
18998;DHT22;9632;51.018;4.284;2022-07-04T05:53:49;22.50;99.90
18998;DHT22;9632;51.018;4.284;2022-07-04T05:56:14;22.50;99.90
18998;DHT22;9632;51.018;4.284;2022-07-04T05:58:40;22.60;99.90
18998;DHT22;9632;51.018;4.284;2022-07-04T06:01:06;22.80;99.90
18998;DHT22;9632;51.018;4.284;2022-07-04T06:03:34;23.00;99.90
18998;DHT22;9632;51.018;4.284;2022-07-04T06:06:02;23.10;99.90
18998;DHT22;9632;51.018;4.284;2022-07-04T06:08:28;23.20;99.90
18998;DHT22;9632;51.018;4.284;2022-07-04T06:10:53;23.30;99.90
18998;DHT22;9632;51.018;4.284;2022-07-04T06:13:19;23.30;99.90
18998;DHT22;9632;51.018;4.284;2022-07-04T06:15:45;23.30;99.90
18998;DHT22;9632;51.018;4.284;2022-07-04T06:18:10;23.40;99.90
18998;DHT22;9632;51.018;4.284;2022-07-04T06:20:37;23.40;99.90
18998;DHT22;9632;51.018;4.284;2022-07-04T06:23:05;23.60;99.90
18998;DHT22;9632;51.018;4.284;2022-07-04T06:25:31;23.70;99.90
18998;DHT22;9632;51.018;4.284;2022-07-04T06:27:57;23.90;99.90
18998;DHT22;9632;51.018;4.284;2022-07-04T06:30:22;24.00;99.90
18998;DHT22;9632;51.018;4.284;2022-07-04T06:32:53;24.20;99.90
18998;DHT22;9632;51.018;4.284;2022-07-04T06:35:25;24.20;99.90
18998;DHT22;9632;51.018;4.284;2022-07-04T06:38:10;24.30;99.90
18998;DHT22;9632;51.018;4.284;2022-07-04T06:40:37;24.20;99.90
18998;DHT22;9632;51.018;4.284;2022-07-04T06:43:03;24.00;99.90
18998;DHT22;9632;51.018;4.284;2022-07-04T06:45:30;23.90;99.90
18998;DHT22;9632;51.018;4.284;2022-07-04T06:47:56;24.00;99.90
18998;DHT22;9632;51.018;4.284;2022-07-04T06:50:22;24.10;99.90
18998;DHT22;9632;51.018;4.284;2022-07-04T06:52:48;24.30;99.90
18998;DHT22;9632;51.018;4.284;2022-07-04T06:55:13;24.50;99.90
18998;DHT22;9632;51.018;4.284;2022-07-04T06:57:39;24.50;99.90
18998;DHT22;9632;51.018;4.284;2022-07-04T07:00:06;24.40;99.90
18998;DHT22;9632;51.018;4.284;2022-07-04T07:02:34;24.20;99.90
18998;DHT22;9632;51.018;4.284;2022-07-04T07:05:00;23.90;99.90
18998;DHT22;9632;51.018;4.284;2022-07-04T07:07:25;24.00;99.90
18998;DHT22;9632;51.018;4.284;2022-07-04T07:09:53;24.10;99.90
18998;DHT22;9632;51.018;4.284;2022-07-04T07:12:20;24.20;99.90
18998;DHT22;9632;51.018;4.284;2022-07-04T07:14:46;24.40;99.90
18998;DHT22;9632;51.018;4.284;2022-07-04T07:17:12;24.50;99.90
18998;DHT22;9632;51.018;4.284;2022-07-04T07:19:37;24.70;99.90
18998;DHT22;9632;51.018;4.284;2022-07-04T07:22:03;24.50;99.90
18998;DHT22;9632;51.018;4.284;2022-07-04T07:24:29;24.50;99.90
18998;DHT22;9632;51.018;4.284;2022-07-04T07:26:57;24.60;99.90
18998;DHT22;9632;51.018;4.284;2022-07-04T07:29:23;24.80;99.90
18998;DHT22;9632;51.018;4.284;2022-07-04T07:31:49;24.90;99.90
18998;DHT22;9632;51.018;4.284;2022-07-04T07:34:14;25.10;99.90
18998;DHT22;9632;51.018;4.284;2022-07-04T07:36:40;25.10;99.90
18998;DHT22;9632;51.018;4.284;2022-07-04T07:39:06;25.20;99.90
18998;DHT22;9632;51.018;4.284;2022-07-04T07:41:32;25.30;99.90
18998;DHT22;9632;51.018;4.284;2022-07-04T07:43:57;25.30;99.90
18998;DHT22;9632;51.018;4.284;2022-07-04T07:46:23;25.30;99.90
18998;DHT22;9632;51.018;4.284;2022-07-04T07:48:48;25.30;99.90
18998;DHT22;9632;51.018;4.284;2022-07-04T07:51:14;25.30;99.90
18998;DHT22;9632;51.018;4.284;2022-07-04T07:53:42;25.40;99.90
18998;DHT22;9632;51.018;4.284;2022-07-04T07:56:07;25.40;99.90
18998;DHT22;9632;51.018;4.284;2022-07-04T07:58:33;25.30;99.90
18998;DHT22;9632;51.018;4.284;2022-07-04T08:00:59;25.50;99.90
18998;DHT22;9632;51.018;4.284;2022-07-04T08:03:25;25.50;99.90
18998;DHT22;9632;51.018;4.284;2022-07-04T08:06:10;25.40;99.90
18998;DHT22;9632;51.018;4.284;2022-07-04T08:08:37;25.60;99.90
18998;DHT22;9632;51.018;4.284;2022-07-04T08:11:03;25.60;99.90
18998;DHT22;9632;51.018;4.284;2022-07-04T08:13:29;25.60;99.90
18998;DHT22;9632;51.018;4.284;2022-07-04T08:15:55;25.60;99.90
18998;DHT22;9632;51.018;4.284;2022-07-04T08:18:20;25.70;99.90
18998;DHT22;9632;51.018;4.284;2022-07-04T08:20:48;25.90;99.90
18998;DHT22;9632;51.018;4.284;2022-07-04T08:23:14;26.00;99.90
18998;DHT22;9632;51.018;4.284;2022-07-04T08:25:40;26.10;99.90
18998;DHT22;9632;51.018;4.284;2022-07-04T08:28:05;26.10;99.90
18998;DHT22;9632;51.018;4.284;2022-07-04T08:30:31;26.10;99.90
18998;DHT22;9632;51.018;4.284;2022-07-04T08:32:57;26.30;99.90
18998;DHT22;9632;51.018;4.284;2022-07-04T08:35:22;26.40;99.90
18998;DHT22;9632;51.018;4.284;2022-07-04T08:37:48;26.50;99.90
18998;DHT22;9632;51.018;4.284;2022-07-04T08:40:22;26.40;99.90
18998;DHT22;9632;51.018;4.284;2022-07-04T08:42:49;26.40;99.90
18998;DHT22;9632;51.018;4.284;2022-07-04T08:45:16;26.40;99.90
18998;DHT22;9632;51.018;4.284;2022-07-04T08:47:43;26.10;99.90
18998;DHT22;9632;51.018;4.284;2022-07-04T08:50:16;25.90;99.90
18998;DHT22;9632;51.018;4.284;2022-07-04T08:53:15;25.90;99.90
18998;DHT22;9632;51.018;4.284;2022-07-04T08:55:42;25.90;99.90
18998;DHT22;9632;51.018;4.284;2022-07-04T08:58:26;26.00;99.90
18998;DHT22;9632;51.018;4.284;2022-07-04T09:00:54;25.90;99.90
18998;DHT22;9632;51.018;4.284;2022-07-04T09:03:20;26.00;99.90
18998;DHT22;9632;51.018;4.284;2022-07-04T09:05:46;26.00;99.90
18998;DHT22;9632;51.018;4.284;2022-07-04T09:08:12;25.90;99.90
18998;DHT22;9632;51.018;4.284;2022-07-04T09:10:39;26.10;99.90
18998;DHT22;9632;51.018;4.284;2022-07-04T09:13:06;26.10;99.90
18998;DHT22;9632;51.018;4.284;2022-07-04T09:15:32;26.20;99.90
18998;DHT22;9632;51.018;4.284;2022-07-04T09:17:59;25.90;99.90
18998;DHT22;9632;51.018;4.284;2022-07-04T09:20:25;25.90;99.90
18998;DHT22;9632;51.018;4.284;2022-07-04T09:22:53;25.90;99.90
18998;DHT22;9632;51.018;4.284;2022-07-04T09:25:19;26.00;99.90
18998;DHT22;9632;51.018;4.284;2022-07-04T09:27:50;26.20;99.90
18998;DHT22;9632;51.018;4.284;2022-07-04T09:30:26;26.40;99.90
18998;DHT22;9632;51.018;4.284;2022-07-04T09:32:57;26.50;99.90
18998;DHT22;9632;51.018;4.284;2022-07-04T09:35:27;26.60;99.90
18998;DHT22;9632;51.018;4.284;2022-07-04T09:37:59;26.50;99.90
18998;DHT22;9632;51.018;4.284;2022-07-04T09:40:36;26.50;99.90
18998;DHT22;9632;51.018;4.284;2022-07-04T09:43:22;26.60;99.90
18998;DHT22;9632;51.018;4.284;2022-07-04T09:45:55;26.70;99.90
18998;DHT22;9632;51.018;4.284;2022-07-04T09:48:21;26.80;99.90
18998;DHT22;9632;51.018;4.284;2022-07-04T09:50:47;26.90;99.90
18998;DHT22;9632;51.018;4.284;2022-07-04T09:53:12;26.90;99.90
18998;DHT22;9632;51.018;4.284;2022-07-04T09:55:39;27.00;99.90
18998;DHT22;9632;51.018;4.284;2022-07-04T09:58:12;27.10;99.90
18998;DHT22;9632;51.018;4.284;2022-07-04T10:00:43;27.20;99.90
18998;DHT22;9632;51.018;4.284;2022-07-04T10:03:23;27.30;99.90
18998;DHT22;9632;51.018;4.284;2022-07-04T10:06:12;27.30;99.90
18998;DHT22;9632;51.018;4.284;2022-07-04T10:08:39;27.40;99.90
18998;DHT22;9632;51.018;4.284;2022-07-04T10:11:06;27.40;99.90
18998;DHT22;9632;51.018;4.284;2022-07-04T10:13:32;27.40;99.90
18998;DHT22;9632;51.018;4.284;2022-07-04T10:15:57;27.30;99.90
18998;DHT22;9632;51.018;4.284;2022-07-04T10:18:24;27.30;99.90
18998;DHT22;9632;51.018;4.284;2022-07-04T10:20:51;27.40;99.90
18998;DHT22;9632;51.018;4.284;2022-07-04T10:23:18;27.60;99.90
18998;DHT22;9632;51.018;4.284;2022-07-04T10:25:50;27.50;99.90
18998;DHT22;9632;51.018;4.284;2022-07-04T10:28:17;27.50;99.90
18998;DHT22;9632;51.018;4.284;2022-07-04T10:30:46;27.50;99.90
18998;DHT22;9632;51.018;4.284;2022-07-04T10:33:13;27.50;99.90
18998;DHT22;9632;51.018;4.284;2022-07-04T10:38:13;27.20;99.90
18998;DHT22;9632;51.018;4.284;2022-07-04T10:48:33;27.10;99.90
18998;DHT22;9632;51.018;4.284;2022-07-04T10:53:26;27.40;99.90
18998;DHT22;9632;51.018;4.284;2022-07-04T10:55:52;27.50;99.90
18998;DHT22;9632;51.018;4.284;2022-07-04T10:58:40;27.60;99.90
18998;DHT22;9632;51.018;4.284;2022-07-04T11:01:12;27.70;99.90
18998;DHT22;9632;51.018;4.284;2022-07-04T11:03:49;27.80;99.90
18998;DHT22;9632;51.018;4.284;2022-07-04T11:09:23;27.60;99.90
18998;DHT22;9632;51.018;4.284;2022-07-04T11:11:59;27.60;99.90
18998;DHT22;9632;51.018;4.284;2022-07-04T11:14:42;27.70;99.90
18998;DHT22;9632;51.018;4.284;2022-07-04T11:17:20;27.60;99.90
18998;DHT22;9632;51.018;4.284;2022-07-04T11:19:59;27.40;99.90
18998;DHT22;9632;51.018;4.284;2022-07-04T11:22:26;27.20;99.90
18998;DHT22;9632;51.018;4.284;2022-07-04T11:24:52;27.10;99.90
18998;DHT22;9632;51.018;4.284;2022-07-04T11:27:21;27.00;99.90
18998;DHT22;9632;51.018;4.284;2022-07-04T11:29:51;26.90;99.90
18998;DHT22;9632;51.018;4.284;2022-07-04T11:32:17;27.00;99.90
18998;DHT22;9632;51.018;4.284;2022-07-04T11:34:43;26.90;99.90
18998;DHT22;9632;51.018;4.284;2022-07-04T11:37:09;27.00;99.90
18998;DHT22;9632;51.018;4.284;2022-07-04T11:39:35;27.20;99.90
18998;DHT22;9632;51.018;4.284;2022-07-04T11:42:00;27.20;99.90
18998;DHT22;9632;51.018;4.284;2022-07-04T11:44:44;27.20;99.90
18998;DHT22;9632;51.018;4.284;2022-07-04T11:47:34;27.10;99.90
18998;DHT22;9632;51.018;4.284;2022-07-04T11:50:12;27.10;99.90
18998;DHT22;9632;51.018;4.284;2022-07-04T11:52:49;27.10;99.90
18998;DHT22;9632;51.018;4.284;2022-07-04T11:55:19;27.20;99.90
18998;DHT22;9632;51.018;4.284;2022-07-04T11:57:50;27.20;99.90
18998;DHT22;9632;51.018;4.284;2022-07-04T12:00:24;27.30;99.90
18998;DHT22;9632;51.018;4.284;2022-07-04T12:02:50;27.40;99.40
18998;DHT22;9632;51.018;4.284;2022-07-04T12:05:17;27.40;99.90
18998;DHT22;9632;51.018;4.284;2022-07-04T12:07:45;27.40;99.90
18998;DHT22;9632;51.018;4.284;2022-07-04T12:10:15;27.30;99.90
18998;DHT22;9632;51.018;4.284;2022-07-04T12:13:14;27.40;99.50
18998;DHT22;9632;51.018;4.284;2022-07-04T12:15:45;27.30;99.50
18998;DHT22;9632;51.018;4.284;2022-07-04T12:18:19;27.20;99.90
18998;DHT22;9632;51.018;4.284;2022-07-04T12:20:46;27.30;99.90
18998;DHT22;9632;51.018;4.284;2022-07-04T12:23:12;27.30;99.90
18998;DHT22;9632;51.018;4.284;2022-07-04T12:25:38;27.40;99.50
18998;DHT22;9632;51.018;4.284;2022-07-04T12:28:06;27.50;99.30
18998;DHT22;9632;51.018;4.284;2022-07-04T12:30:38;27.40;99.10
18998;DHT22;9632;51.018;4.284;2022-07-04T12:33:05;27.40;98.30
18998;DHT22;9632;51.018;4.284;2022-07-04T12:35:44;27.40;98.10
18998;DHT22;9632;51.018;4.284;2022-07-04T12:38:34;27.40;97.90
18998;DHT22;9632;51.018;4.284;2022-07-04T12:46:32;27.60;97.90
18998;DHT22;9632;51.018;4.284;2022-07-04T12:48:59;27.60;97.90
18998;DHT22;9632;51.018;4.284;2022-07-04T12:51:31;27.60;97.40
18998;DHT22;9632;51.018;4.284;2022-07-04T12:53:57;27.70;98.00
18998;DHT22;9632;51.018;4.284;2022-07-04T12:56:39;27.70;97.00
18998;DHT22;9632;51.018;4.284;2022-07-04T12:59:10;27.60;97.20
18998;DHT22;9632;51.018;4.284;2022-07-04T13:01:37;27.70;95.60
18998;DHT22;9632;51.018;4.284;2022-07-04T13:04:04;27.50;95.50
18998;DHT22;9632;51.018;4.284;2022-07-04T13:06:30;27.70;96.00
18998;DHT22;9632;51.018;4.284;2022-07-04T13:08:56;27.80;96.10
18998;DHT22;9632;51.018;4.284;2022-07-04T13:11:22;27.90;96.80
18998;DHT22;9632;51.018;4.284;2022-07-04T13:14:07;27.90;96.00
18998;DHT22;9632;51.018;4.284;2022-07-04T13:16:33;27.70;95.40
18998;DHT22;9632;51.018;4.284;2022-07-04T13:18:58;27.40;96.40
18998;DHT22;9632;51.018;4.284;2022-07-04T13:21:25;27.40;96.30
18998;DHT22;9632;51.018;4.284;2022-07-04T13:23:52;27.60;96.30
18998;DHT22;9632;51.018;4.284;2022-07-04T13:26:18;27.60;96.00
18998;DHT22;9632;51.018;4.284;2022-07-04T13:28:43;27.70;96.30
18998;DHT22;9632;51.018;4.284;2022-07-04T13:31:09;27.80;94.10
18998;DHT22;9632;51.018;4.284;2022-07-04T13:33:35;27.80;95.40
18998;DHT22;9632;51.018;4.284;2022-07-04T13:36:01;27.80;96.90
18998;DHT22;9632;51.018;4.284;2022-07-04T13:38:26;27.70;95.50
18998;DHT22;9632;51.018;4.284;2022-07-04T13:40:52;27.70;95.30
18998;DHT22;9632;51.018;4.284;2022-07-04T13:43:18;27.80;96.10
18998;DHT22;9632;51.018;4.284;2022-07-04T13:45:44;27.80;96.40
18998;DHT22;9632;51.018;4.284;2022-07-04T13:48:12;27.80;96.10
18998;DHT22;9632;51.018;4.284;2022-07-04T13:50:38;27.80;96.10
18998;DHT22;9632;51.018;4.284;2022-07-04T13:53:07;27.90;96.20
18998;DHT22;9632;51.018;4.284;2022-07-04T13:55:34;27.90;95.90
18998;DHT22;9632;51.018;4.284;2022-07-04T13:58:04;28.00;95.50
18998;DHT22;9632;51.018;4.284;2022-07-04T14:00:29;28.00;96.40
18998;DHT22;9632;51.018;4.284;2022-07-04T14:02:55;28.00;94.40
18998;DHT22;9632;51.018;4.284;2022-07-04T14:05:21;28.00;95.60
18998;DHT22;9632;51.018;4.284;2022-07-04T14:07:47;28.10;95.80
18998;DHT22;9632;51.018;4.284;2022-07-04T14:10:13;28.10;96.00
18998;DHT22;9632;51.018;4.284;2022-07-04T14:12:39;28.00;96.00
18998;DHT22;9632;51.018;4.284;2022-07-04T14:15:05;27.90;95.70
18998;DHT22;9632;51.018;4.284;2022-07-04T14:17:31;28.00;96.60
18998;DHT22;9632;51.018;4.284;2022-07-04T14:19:56;28.00;96.50
18998;DHT22;9632;51.018;4.284;2022-07-04T14:22:22;27.80;96.10
18998;DHT22;9632;51.018;4.284;2022-07-04T14:24:48;27.70;95.90
18998;DHT22;9632;51.018;4.284;2022-07-04T14:27:14;27.60;96.30
18998;DHT22;9632;51.018;4.284;2022-07-04T14:29:39;27.50;95.90
18998;DHT22;9632;51.018;4.284;2022-07-04T14:32:06;27.40;96.20
18998;DHT22;9632;51.018;4.284;2022-07-04T14:34:32;27.40;96.40
18998;DHT22;9632;51.018;4.284;2022-07-04T14:36:58;27.40;97.20
18998;DHT22;9632;51.018;4.284;2022-07-04T14:39:24;27.40;97.10
18998;DHT22;9632;51.018;4.284;2022-07-04T14:41:50;27.50;96.60
18998;DHT22;9632;51.018;4.284;2022-07-04T14:44:19;27.40;96.40
18998;DHT22;9632;51.018;4.284;2022-07-04T14:46:45;27.20;96.60
18998;DHT22;9632;51.018;4.284;2022-07-04T14:49:11;27.30;96.80
18998;DHT22;9632;51.018;4.284;2022-07-04T14:51:37;27.30;97.90
18998;DHT22;9632;51.018;4.284;2022-07-04T14:54:09;27.30;96.80
18998;DHT22;9632;51.018;4.284;2022-07-04T14:56:35;27.20;96.40
18998;DHT22;9632;51.018;4.284;2022-07-04T14:59:01;27.10;96.10
18998;DHT22;9632;51.018;4.284;2022-07-04T15:01:27;27.10;96.10
18998;DHT22;9632;51.018;4.284;2022-07-04T15:03:53;27.10;96.20
18998;DHT22;9632;51.018;4.284;2022-07-04T15:06:19;27.20;96.10
18998;DHT22;9632;51.018;4.284;2022-07-04T15:08:45;27.20;96.10
18998;DHT22;9632;51.018;4.284;2022-07-04T15:11:11;27.30;96.80
18998;DHT22;9632;51.018;4.284;2022-07-04T15:13:37;27.30;96.90
18998;DHT22;9632;51.018;4.284;2022-07-04T15:16:02;27.30;97.50
18998;DHT22;9632;51.018;4.284;2022-07-04T15:18:28;27.40;97.60
18998;DHT22;9632;51.018;4.284;2022-07-04T15:20:54;27.30;97.50
18998;DHT22;9632;51.018;4.284;2022-07-04T15:23:38;27.10;96.40
18998;DHT22;9632;51.018;4.284;2022-07-04T15:26:22;27.10;97.20
18998;DHT22;9632;51.018;4.284;2022-07-04T15:28:48;27.20;97.50
18998;DHT22;9632;51.018;4.284;2022-07-04T15:31:13;27.10;98.00
18998;DHT22;9632;51.018;4.284;2022-07-04T15:33:40;27.10;98.70
18998;DHT22;9632;51.018;4.284;2022-07-04T15:36:06;27.10;98.50
18998;DHT22;9632;51.018;4.284;2022-07-04T15:38:32;27.10;97.40
18998;DHT22;9632;51.018;4.284;2022-07-04T15:40:57;27.10;98.10
18998;DHT22;9632;51.018;4.284;2022-07-04T15:43:26;27.00;98.10
18998;DHT22;9632;51.018;4.284;2022-07-04T15:45:52;27.00;97.60
18998;DHT22;9632;51.018;4.284;2022-07-04T15:48:17;27.00;97.40
18998;DHT22;9632;51.018;4.284;2022-07-04T15:50:43;27.00;97.60
18998;DHT22;9632;51.018;4.284;2022-07-04T15:53:09;27.00;97.80
18998;DHT22;9632;51.018;4.284;2022-07-04T15:55:35;27.00;98.20
18998;DHT22;9632;51.018;4.284;2022-07-04T15:58:00;27.00;98.10
18998;DHT22;9632;51.018;4.284;2022-07-04T16:00:26;27.00;98.50
18998;DHT22;9632;51.018;4.284;2022-07-04T16:02:52;27.00;98.50
18998;DHT22;9632;51.018;4.284;2022-07-04T16:05:17;27.00;98.60
18998;DHT22;9632;51.018;4.284;2022-07-04T16:07:43;26.90;98.10
18998;DHT22;9632;51.018;4.284;2022-07-04T16:10:09;26.80;98.20